createdAt,value
2018-03-30T20:52:35.740Z,9.60
2018-03-30T20:55:24.464Z,9.60
2018-03-30T20:57:51.829Z,9.50
2018-03-30T21:00:18.960Z,9.40
2018-03-30T21:02:46.902Z,9.20
2018-03-30T21:05:14.231Z,9.20
2018-03-30T21:07:42.974Z,9.00
2018-03-30T21:10:10.907Z,9.00
2018-03-30T21:12:39.639Z,8.90
2018-03-30T21:15:06.934Z,8.90
2018-03-30T21:17:34.086Z,8.90
2018-03-30T21:20:01.247Z,8.90
2018-03-30T21:22:28.390Z,8.90
2018-03-30T21:24:55.544Z,8.90
2018-03-30T21:27:23.527Z,9.20
2018-03-30T21:29:50.758Z,9.20
2018-03-30T21:32:18.091Z,9.10
2018-03-30T21:34:45.280Z,9.10
2018-03-30T21:37:12.435Z,9.20
2018-03-30T21:39:40.162Z,9.20
2018-03-30T21:42:07.343Z,9.00
2018-03-30T21:44:34.550Z,8.90
2018-03-30T21:47:01.768Z,8.90
2018-03-30T21:49:29.961Z,9.00
2018-03-30T21:51:57.120Z,9.00
2018-03-30T21:54:24.256Z,9.00
2018-03-30T21:56:54.339Z,9.00
2018-03-30T21:59:24.553Z,8.90
2018-03-30T22:01:53.844Z,9.00
2018-03-30T22:04:21.299Z,9.00
2018-03-30T22:06:48.475Z,9.00
2018-03-30T22:09:15.689Z,9.00
2018-03-30T22:11:42.866Z,8.90
2018-03-30T22:14:10.002Z,8.90
2018-03-30T22:16:37.254Z,9.10
2018-03-30T22:19:04.403Z,9.20
2018-03-30T22:21:31.536Z,9.10
2018-03-30T22:23:58.769Z,9.00
2018-03-30T22:26:27.521Z,8.70
2018-03-30T22:28:54.713Z,8.70
2018-03-30T22:31:21.926Z,8.80
2018-03-30T22:33:49.094Z,8.70
2018-03-30T22:36:17.028Z,8.70
2018-03-30T22:38:44.214Z,8.60
2018-03-30T22:41:12.129Z,8.40
2018-03-30T22:43:39.280Z,8.30
2018-03-30T22:46:06.452Z,8.30
2018-03-30T22:48:33.605Z,8.20
2018-03-30T22:51:00.796Z,8.20
2018-03-30T22:53:27.940Z,8.20
2018-03-30T22:55:55.872Z,8.20
2018-03-30T22:58:23.055Z,8.20
2018-03-30T23:00:50.959Z,8.20
2018-03-30T23:03:18.087Z,8.20
2018-03-30T23:05:45.266Z,8.30
2018-03-30T23:08:12.395Z,8.30
2018-03-30T23:10:39.561Z,8.40
2018-03-30T23:13:06.762Z,8.20
2018-03-30T23:15:33.938Z,8.20
2018-03-30T23:18:01.062Z,8.20
2018-03-30T23:20:28.184Z,8.40
2018-03-30T23:22:55.350Z,8.40
2018-03-30T23:25:22.507Z,8.60
2018-03-30T23:27:49.646Z,8.40
2018-03-30T23:30:16.877Z,8.30
2018-03-30T23:32:44.077Z,8.10
2018-03-30T23:35:11.964Z,7.90
2018-03-30T23:37:39.102Z,7.90
2018-03-30T23:40:07.032Z,7.90
2018-03-30T23:42:34.164Z,7.90
2018-03-30T23:45:01.361Z,8.00
2018-03-30T23:47:29.293Z,8.10
2018-03-30T23:49:56.428Z,8.00
2018-03-30T23:52:23.690Z,8.10
2018-03-30T23:54:50.840Z,8.00
2018-03-30T23:57:18.032Z,8.10
2018-03-30T23:59:45.960Z,8.10
